x

Central Aleutians 230nm Sw Dutch Harbor (46072) Wave Buoy

6:50 - Wed 17th Sep 2014 All times are UTC.

  • Sig Wave height 3.9ft
  • Peak Period 9s
  • Average Period 5s
  • Wind
    18mph, 22mph gusts
  • Sea Temp 50°f
  • Aire Temp 49°f
  • Sea Pressure 1002.5mb

More Historic Weather Station data

Upgrade to MSW Pro to gain access to the past 30 days of data for over 8000 Wavebouys and Weather Stations around the globe.

Join Pro

Comparision Forecast

View Surf forecast
   
mié 09/17 6:50 4ft 9s 5s 18 22 mph 1002.5mb 50f 49f
5:50 4ft 8s 5s 16 20 mph 1002.2mb 50f 49f
4:50 4ft 8s 5s 16 20 mph 1001.7mb 50f 49f
3:50 3.5ft 5s 5s 16 20 mph 1001.2mb 50f 49f
2:50 3.5ft 8s 5s 13 16 mph 1000.9mb 50f 49f
1:50 3ft 8s 5s 13 18 mph 1000.8mb 49f 49f
12:50 3ft 8s 5s 13 18 mph 1000.8mb 49f 49f
11:50 3ft 8s 5s 13 18 mph 1000.8mb 50f 49f
10:50 3.5ft 7s 5s 13 16 mph 1000.5mb 49f 49f
9:50 3.5ft 17s 6s 13 16 mph 1000.5mb 49f 49f
8:50 3.5ft 8s 5s 16 18 mph 1000.1mb 50f 49f
7:50 3.5ft 6s 5s 16 18 mph 999.8mb 49f 49f
6:50 3.5ft 8s 5s 16 18 mph 999.4mb 50f 49f
5:50 4ft 7s 6s 11 13 mph 999.6mb 50f 49f
4:50 4.5ft 8s 5s 9 11 mph 999.4mb 50f 49f
3:50 4.5ft 7s 5s 13 16 mph 999.3mb 50f 49f
2:50 5ft 7s 6s 11 13 mph 999.7mb 50f 49f
1:50 5ft 7s 6s 9 11 mph 1000.1mb 50f 49f
12:50 5ft 7s 6s 9 11 mph 1000.7mb 50f 50f
mar 09/16 11:50 5ft 7s 6s 7 9 mph 1001.5mb 51f 50f
10:50 5ft 8s 7s 4 7 mph 1002.3mb 51f 50f
9:50 5ft 8s 6s 2 4 mph 1002.7mb 51f 50f
8:50 5ft 7s 6s 4
mph
1003mb 50f 49f
7:50 5.5ft 7s 6s 7 9 mph 1003mb 50f 49f
6:50 5ft 7s 6s 11 13 mph 1003.1mb 50f 49f
5:50 6ft 7s 6s 11 13 mph 1003.5mb 51f 49f
4:50 5ft 8s 6s 11
mph
1003.2mb 51f 49f
3:50 5.5ft 8s 5s 11 13 mph 1003.2mb 52f 49f
2:50 6ft 8s 6s 13 16 mph 1003.7mb 51f 49f
1:50 6ft 7s 5s 16 20 mph 1004mb 51f 49f
12:50 6ft 7s 6s 16 20 mph 1004.6mb 51f 49f
11:50 6ft 7s 6s 11 13 mph 1004.8mb 51f 50f
10:50 6ft 7s 6s 11 13 mph 1005.1mb 51f 49f
9:50 5ft 6s 6s 13 16 mph 1004.7mb 50f 49f
8:50 5.5ft 7s 6s 11 16 mph 1004.6mb 50f 49f
7:50 5ft 7s 5s 16 20 mph 1004.1mb 51f 49f
6:50 5.5ft 6s 5s 20 25 mph 1003.3mb 52f 50f
5:50 5ft 7s 5s 20 22 mph 1002.3mb 52f 50f
4:50 5ft 6s 5s 18 22 mph 1001.6mb 51f 49f
3:50 5.5ft 6s 5s 18 22 mph 1001mb 49f 49f
2:50 6ft 6s 5s 20 25 mph 1000.5mb 49f 50f
1:50 5ft 6s 5s 20 25 mph 1000.6mb 49f 50f
12:50 5.5ft 6s 5s 20 25 mph 1000.6mb 49f 50f
lun 09/15 11:50 5ft 6s 5s 18 22 mph 1001mb 49f 51f
10:50 5ft 6s 5s 20 22 mph 1001.4mb 51f 51f
9:50 5ft 6s 5s 20 22 mph 1002mb 52f 51f
8:50 5.5ft 5s 5s 20 25 mph 1002.6mb 52f 52f
7:50 4.5ft 5s 4s 20 25 mph 1003.3mb 52f 52f
6:50 4.5ft 9s 4s 22 25 mph 1004.3mb 52f 50f
5:50 4.5ft 8s 5s 20 22 mph 1005.3mb 52f 51f
4:50 4.5ft 7s 5s 13 16 mph 1006.2mb 52f 51f
3:50 4.5ft 7s 5s 16 18 mph 1006.8mb 52f 51f
2:50 5ft 8s 6s 13 16 mph 1007.7mb 52f 51f
1:50 6ft 8s 6s 13 16 mph 1008.3mb 52f 51f
12:50 6.5ft 8s 6s 13 18 mph 1008.7mb 52f 51f
11:50 6ft 7s 6s 9 13 mph 1009.3mb 52f 50f
10:50 5ft 8s 6s 7 9 mph 1010.3mb 52f 50f
9:50 5ft 8s 6s 9 11 mph 1010.7mb 52f 49f
8:50 5ft 8s 7s 7 9 mph 1010.6mb 51f 49f
7:50 5ft 10s 7s 4 7 mph 1010.7mb 50f 48f
6:50 6ft 8s 7s 7 11 mph 1010.4mb 47f 48f
5:50 6ft 10s 6s 7 11 mph 1010.1mb 47f 48f
4:50 6ft 8s 6s 9 11 mph 1010.2mb 46f 47f
3:50 6ft 7s 6s 9 13 mph 1010.1mb 46f 47f
2:50 7ft 8s 6s 11 13 mph 1009.8mb 46f 47f
1:50 8ft 7s 6s 9 11 mph 1010mb 46f 47f
12:50 8ft 8s 6s 11
mph
1009.9mb 46f 47f
dom 09/14 11:50 9ft 9s 7s 13 16 mph 1010mb 46f 47f
10:50 9ft 9s 7s 11 13 mph 1009.8mb 45f 47f
9:50 8ft 9s 7s 13 18 mph 1009.8mb 45f 47f
8:50 9ft 9s 7s 13 16 mph 1009.6mb 45f 47f
7:50 8ft 9s 7s 13 16 mph 1009.3mb 45f 46f
6:50 8ft 8s 7s 16 20 mph 1008.6mb 45f 47f
5:50 8ft 9s 7s 13 18 mph 1008.3mb 45f 47f
4:50 10ft 9s 7s 11 16 mph 1007.8mb 45f 47f
3:50 10ft 10s 7s 18 22 mph 1007.4mb 46f 47f
2:50 10ft 8s 6s 18 20 mph 1007.2mb 46f 47f
1:50 11.5ft 9s 7s 20 25 mph 1006.4mb 46f 48f
12:50 11.5ft 8s 6s 20 25 mph 1006.4mb 46f 48f
11:50 13.5ft 9s 7s 22 29 mph 1005.8mb 46f 48f
10:50 15.5ft 10s 7s 22 27 mph 1005.1mb 46f 48f
9:50 14ft 11s 7s 22 27 mph 1004.5mb 45f 48f
8:50 15.5ft 10s 8s 20 25 mph 1003.9mb 46f 48f
7:50 15ft 10s 8s 22 29 mph 1002.9mb 46f 48f
6:50 15.5ft 10s 8s 25 29 mph 1002mb 46f 49f
5:50 16ft 11s 8s 25 31 mph 1001mb 47f 49f
4:50 16.5ft 11s 8s 25 29 mph 1000.3mb 47f 48f
3:50 16ft 11s 8s 29 34 mph 999.4mb 46f 49f
2:50 16.5ft 11s 8s 29 38 mph 998.7mb 47f 49f
1:50 19.5ft 11s 8s 31 40 mph 997.9mb 47f 49f
12:50 19.5ft 11s 8s 34 43 mph 997.1mb 47f 49f
sáb 09/13 11:50 19ft 12s 8s 34 43 mph 996.4mb 47f 49f
10:50 21.5ft 12s 8s 34 43 mph 995.7mb 47f 50f
9:50 21.5ft 11s 8s 34 43 mph 995mb 47f 49f
8:50 23.5ft 12s 9s 36 47 mph 994mb 47f 50f